AirNav   Air Wisconsin Up To $57,000 Bonus
 
 975 users online  

AZ07 Phoenix Area Heliport
Phoenix, Arizona, USA

GOING TO PHOENIX?


FAA INFORMATION EFFECTIVE 08 SEPTEMBER 2022

Location

FAA Identifier: AZ07
Lat/Long: 33-26-33.8400N 112-08-56.9400W
33-26.564000N 112-08.949000W
33.4427333,-112.1491500
(estimated)
Elevation: 1042 ft. / 318 m (estimated)
Variation: 13E (1985)
Time zone: UTC -7 (year round; does not observe DST)
Zip code: 85009

Heliport Operations

Heliport use: Private use. Permission required prior to landing
Activation date: 10/1970
Control tower: no
ARTCC: ALBUQUERQUE CENTER
FSS: PRESCOTT FLIGHT SERVICE STATION
Attendance: MON-FRI 0730-1600
Wind indicator: yes
Segmented circle: no

Heliport Communications

WX ASOS at PHX (7 nm E): PHONE 602-231-8557
WX AWOS-3 at GEU (9 nm NW): PHONE 623-877-8609
WX ASOS at DVT (15 nm N): 126.5 (623-587-7764)
WX ASOS at SDL (16 nm NE): PHONE 480-483-3049
WX AWOS-3PT at CHD (20 nm SE): PHONE 480-814-9952

Nearby radio navigation aids

VOR radial/distance  VOR name  Freq  Var
PXRr262/9.0PHOENIX VORTAC115.6012E
IWAr276/26.3WILLIE VORTAC113.3013E
BXKr077/33.8BUCKEYE VORTAC110.6014E
TFDr328/35.5STANFIELD VORTAC114.8012E
GBNr028/39.3GILA BEND VORTAC116.6014E

Heliport Services

Airframe service: MAJOR
Powerplant service: MINOR

Runway Information

Helipad H1

Dimensions: 20 x 20 ft. / 6 x 6 m
Surface: concrete, in good condition
Latitude: 33-26.564000N
Longitude: 112-08.949000W
Elevation: 1042.0 ft.
Traffic pattern: leftleft

Heliport Ownership and Management from official FAA records

Ownership: Privately-owned
Owner: DOE WESTERN AREA PWR ADMIN
DESERT SW CUSTOMER SVC RGN, 615 S. 43RD AVE
PHOENIX, AZ 85009
Phone 602-605-2525
Manager: LOGAN SCHUCK
DESERT SW CUSTOMER SVC RGN, 615 S. 43RD AVE.
PHOENIX, AZ 85009
Phone 928-231-9876

Heliport Operational Statistics

Aircraft based on the field: 1
Helicopters: 1
    

Additional Remarks

TOWER APRX 75 FT HIGH, 150 FT WEST OF HELIPAD.
FOR CD CTC PHOENIX APCH AT 602-306-2565.

Instrument Procedures

There are no published instrument procedures at AZ07.

Some nearby airports with instrument procedures:

KPHX - Phoenix Sky Harbor International Airport (7 nm E)
KGEU - Glendale Municipal Airport (9 nm NW)
KGYR - Phoenix Goodyear Airport (11 nm W)
KLUF - Luke Air Force Base (13 nm NW)
P19 - Stellar Airpark (15 nm SE)
KDVT - Phoenix Deer Valley Airport (15 nm N)
KSDL - Scottsdale Airport (16 nm NE)
KCHD - Chandler Municipal Airport (20 nm SE)
 
Loc | Ops | Rwys | IFR | FBO | Links
Com | Nav | Svcs | Stats | Notes
Area around AZ07 (Phoenix Area Heliport)
 
Road maps at: MapQuest Bing Google
 
Aerial photo
No photo
 
Sectional chart

 
Airport distance calculator
Flying to Phoenix Area Heliport? Find the distance to fly.

From to AZ07

Sunrise and sunset
Times for 02-Oct-2022
 Local
(UTC-7)
 Zulu
(UTC)
Morning civil twilight06:0013:00
Sunrise06:2513:25
Sunset18:1101:11
Evening civil twilight18:3601:36

Current date and time
Zulu (UTC)  02-Oct-2022 19:42:11
Local (UTC-7)  02-Oct-2022 12:42:11
 
METAR
KPHX 
5nm E 
021851Z 12006KT 10SM FEW100 FEW250 33/13 A2990 RMK AO2 SLP104 TCU DSNT NW T03280133 $
KGEU 
9nm NW 
021852Z VRB03KT 10SM SKC 33/15 A2990
KGYR 
11nm W 
021747Z VRB04KT 10SM FEW070 31/18 A2994
KLUF 
12nm W 
021855Z AUTO 00000KT 10SM CLR 33/14 A2990 RMK AO2 SLP110 T03280144 $
KDVT 
15nm N 
021853Z 20008G16KT 10SM CLR 32/13 A2993 RMK AO2 SLP109 T03220128
KSDL 
16nm NE 
021853Z VRB06KT 10SM CLR 32/13 A2994 RMK AO2 SLP111 T03170128
KCHD 
20nm SE 
021847Z 00000KT 10SM CLR 33/14 A2992
TAF
KPHX 
5nm E 
021720Z 0218/0324 16007KT P6SM FEW100 FEW150 FM022200 21007KT P6SM FEW100 FEW150 FM030000 25006KT P6SM FEW100 FEW150 FM030400 10005KT P6SM FEW100 SCT150 SCT250 FM031700 14008KT P6SM FEW100 FEW150 FM032100 28008KT P6SM FEW100 FEW150
KDVT 
15nm N 
021720Z 0218/0318 18008KT P6SM FEW100 FEW150 FM022200 23009KT P6SM FEW100 FEW150 FM030400 03008KT P6SM FEW100 SCT150 SCT250 FM030900 VRB04KT P6SM FEW100 FEW150
KSDL 
16nm NE 
021720Z 0218/0318 VRB04KT P6SM FEW100 FEW150 FM022100 21007KT P6SM FEW100 FEW150 FM030300 04005KT P6SM FEW100 SCT150 SCT250 FM030800 VRB03KT P6SM FEW100 FEW150
NOTAMs
Click for the latest NOTAMs
NOTAMs are issued by the DoD/FAA and will open in a separate window not controlled by AirNav.

 

 
 

Would you like to see your business listed on this page?

 If your business provides an interesting product or service to pilots, flight crews, aircraft, or users of the Phoenix Area Heliport, you should consider listing it here.  To start the listing process, click on the button below
 
Add a business
 

Other Pages about Phoenix Area Heliport

Update a link
 
Copyright © AirNav, LLC. All rights reserved. Privacy Policy  Contact